KEKN/EKN METAR and TAF weather

Enter ICAO airport designator
Station Type Date Time Source
KEKN METAR 2019/02/23 16:51 UTC NOAA

KEKN 231651Z AUTO 17010G19KT 10SM OVC070 08/03 A3014 RMK AO2 RAE14 SLP223 P0000 T00780028 TSNO


Station Type Date Time Source
KEKN Decoded METAR 2019/02/23 16:51 UTC NOAA

JENNINGS RANDOLPH FIELD, WV, United States (KEKN) 38-53N 079-51W 603M
Feb 23, 2019 - 11:51 AM EST / 2019.02.23 1651 UTC
Wind: from the S (170 degrees) at 12 MPH (10 KT) gusting to 22 MPH (19 KT):0
Visibility: 10 mile(s):0
Sky conditions: overcast
Precipitation last hour: A trace
Temperature: 46.0 F (7.8 C)
Dew Point: 37.0 F (2.8 C)
Relative Humidity: 70%
Pressure (altimeter): 30.14 in. Hg (1020 hPa)
ob: KEKN 231651Z AUTO 17010G19KT 10SM OVC070 08/03 A3014 RMK AO2 RAE14 SLP223 P0000 T00780028 TSNO
cycle: 17

Station Type Date Time Source
KEKN TAF 2019/02/23 15:54 UTC NOAA

TAF
AMD KEKN 231451Z 2315/2412 15007KT P6SM -RA OVC050
FM231600 15008G18KT P6SM -RA OVC035
FM240100 16007G15KT P6SM -SHRA OVC025
FM240300 16006KT 5SM -SHRA OVC015
FM241000 20010G19KT 6SM -SHRA OVC025


Example: see airport list